Time;durP1;ratioP1;P1;durP2;ratioP2;P2;SDS_P1;SDS_P2;PMS_P1;PMS_P2;Temp;Humidity;BMP_temperature;BMP_pressure;BME280_temperature;BME280_humidity;BME280_pressure;Samples;Min_cycle;Max_cycle;Signal;HPM_P1;HPM_P2
2021/06/25 00:00:00;;;;;;;14.38;6.10;;;23.60;99.90;;;;;;4189722;28;20624;-62
2021/06/25 00:02:01;;;;;;;15.93;6.85;;;23.60;99.90;;;;;;4191179;28;20052;-62
2021/06/25 00:04:03;;;;;;;17.98;8.32;;;23.60;99.90;;;;;;4189598;28;20025;-61
2021/06/25 00:06:04;;;;;;;13.25;6.05;;;23.60;99.90;;;;;;4190339;28;20032;-61
2021/06/25 00:08:05;;;;;;;14.68;6.93;;;23.50;99.90;;;;;;4190124;28;20025;-63
2021/06/25 00:10:08;;;;;;;11.80;6.72;;;23.40;99.90;;;;;;4191815;28;20106;-61
2021/06/25 00:12:09;;;;;;;18.60;7.38;;;23.30;99.90;;;;;;4190605;28;20042;-62
2021/06/25 00:14:11;;;;;;;19.35;7.63;;;23.20;99.90;;;;;;4191592;28;20082;-62
2021/06/25 00:16:12;;;;;;;17.48;7.68;;;23.10;99.90;;;;;;4190784;28;20059;-61
2021/06/25 00:18:14;;;;;;;14.43;6.38;;;23.00;99.90;;;;;;4190541;28;20032;-62
2021/06/25 00:20:16;;;;;;;20.52;7.07;;;23.00;99.90;;;;;;4190540;28;20408;-62
2021/06/25 00:22:17;;;;;;;14.57;8.13;;;22.90;99.90;;;;;;4189517;28;20083;-60
2021/06/25 00:24:18;;;;;;;17.23;8.48;;;22.80;99.90;;;;;;4190810;28;20086;-62
2021/06/25 00:26:19;;;;;;;15.40;8.50;;;22.70;99.90;;;;;;4189569;28;20609;-63
2021/06/25 00:28:21;;;;;;;18.25;8.52;;;22.60;99.90;;;;;;4191089;28;20534;-61
2021/06/25 00:30:22;;;;;;;17.08;8.85;;;22.60;99.90;;;;;;4189877;28;20052;-62
2021/06/25 00:32:23;;;;;;;19.73;9.15;;;22.60;99.90;;;;;;4191484;28;20546;-61
2021/06/25 00:34:24;;;;;;;14.40;8.43;;;22.50;99.90;;;;;;4189759;28;20084;-62
2021/06/25 00:36:25;;;;;;;18.08;8.10;;;22.50;99.90;;;;;;4191146;28;20043;-60
2021/06/25 00:38:27;;;;;;;14.13;7.68;;;22.60;99.90;;;;;;4189463;28;20078;-61
2021/06/25 00:40:28;;;;;;;15.27;7.32;;;22.60;99.90;;;;;;4190877;28;20078;-61
2021/06/25 00:42:29;;;;;;;17.88;8.23;;;22.60;99.90;;;;;;4189319;28;20090;-61
2021/06/25 00:44:30;;;;;;;20.95;7.82;;;22.70;99.90;;;;;;4190443;28;20036;-61
2021/06/25 00:46:32;;;;;;;13.40;7.00;;;22.70;99.90;;;;;;4190160;28;20025;-61
2021/06/25 00:48:33;;;;;;;13.95;7.43;;;22.70;99.90;;;;;;4188782;28;20044;-60
2021/06/25 00:50:35;;;;;;;13.10;6.53;;;22.80;99.90;;;;;;4190786;28;20443;-62
2021/06/25 00:52:37;;;;;;;15.07;6.68;;;22.80;99.90;;;;;;4189322;28;20464;-62
2021/06/25 00:54:38;;;;;;;19.92;7.20;;;22.80;99.90;;;;;;4190881;28;20434;-61
2021/06/25 00:56:39;;;;;;;17.00;6.88;;;22.80;99.90;;;;;;4189008;28;20050;-60
2021/06/25 00:58:42;;;;;;;12.90;6.90;;;22.80;99.90;;;;;;4189924;28;20098;-60
2021/06/25 01:00:45;;;;;;;11.82;6.38;;;22.80;99.90;;;;;;4189434;28;20089;-63
2021/06/25 01:02:46;;;;;;;11.98;6.28;;;22.80;99.90;;;;;;4190339;28;20040;-61
2021/06/25 01:04:52;;;;;;;14.57;6.75;;;22.80;99.90;;;;;;4189573;28;20066;-62
2021/06/25 01:06:53;;;;;;;15.73;7.88;;;22.80;99.90;;;;;;4190577;28;20040;-62
2021/06/25 01:08:56;;;;;;;22.45;8.48;;;22.70;99.90;;;;;;4189104;28;20078;-62
2021/06/25 01:10:57;;;;;;;20.58;9.10;;;22.60;99.90;;;;;;4190621;28;20446;-61
2021/06/25 01:12:59;;;;;;;22.52;8.38;;;22.50;99.90;;;;;;4189561;28;21142;-61
2021/06/25 01:15:00;;;;;;;19.60;8.43;;;22.40;99.90;;;;;;4190516;28;20094;-65
2021/06/25 01:17:02;;;;;;;16.65;8.13;;;22.40;99.90;;;;;;4188851;28;20086;-61
2021/06/25 01:19:12;;;;;;;23.83;9.75;;;22.30;99.90;;;;;;4190153;28;20029;-60
2021/06/25 01:21:16;;;;;;;14.32;8.05;;;22.30;99.90;;;;;;4189356;28;20476;-60
2021/06/25 01:23:17;;;;;;;19.02;8.10;;;22.30;99.90;;;;;;4190131;28;20106;-62
2021/06/25 01:25:24;;;;;;;19.77;8.85;;;22.30;99.90;;;;;;4189821;28;20048;-61
2021/06/25 01:27:25;;;;;;;16.13;8.43;;;22.30;99.90;;;;;;4189773;28;20106;-61
2021/06/25 01:29:26;;;;;;;21.15;8.80;;;22.20;99.90;;;;;;4189815;28;20045;-61
2021/06/25 01:31:27;;;;;;;26.88;8.40;;;22.30;99.90;;;;;;4189130;28;20102;-61
2021/06/25 01:33:29;;;;;;;12.65;8.00;;;22.20;99.90;;;;;;4190726;28;20056;-62
2021/06/25 01:35:30;;;;;;;20.10;8.27;;;22.10;99.90;;;;;;4189098;28;21422;-61
2021/06/25 01:37:31;;;;;;;15.98;8.80;;;22.10;99.90;;;;;;4190463;28;20484;-61
2021/06/25 01:39:33;;;;;;;20.83;9.23;;;22.00;99.90;;;;;;4188805;28;20435;-62
2021/06/25 01:41:40;;;;;;;21.33;9.85;;;21.90;99.90;;;;;;4190166;28;20070;-63
2021/06/25 01:43:44;;;;;;;19.30;9.77;;;21.80;99.90;;;;;;4188920;28;20098;-61
2021/06/25 01:45:45;;;;;;;16.85;9.07;;;21.80;99.90;;;;;;4190459;28;20812;-62
2021/06/25 01:47:48;;;;;;;20.85;9.05;;;21.70;99.90;;;;;;4188823;28;20024;-62
2021/06/25 01:49:49;;;;;;;15.57;8.95;;;21.80;99.90;;;;;;4190499;28;20033;-61
2021/06/25 01:51:50;;;;;;;19.95;9.27;;;21.80;99.90;;;;;;4188294;28;20048;-62
2021/06/25 01:53:51;;;;;;;30.20;10.10;;;21.80;99.90;;;;;;4190163;28;20101;-61
2021/06/25 01:55:53;;;;;;;18.65;10.02;;;21.80;99.90;;;;;;4188851;28;20032;-65
2021/06/25 01:57:55;;;;;;;22.38;9.07;;;21.80;99.90;;;;;;4189218;28;20098;-62
2021/06/25 01:59:56;;;;;;;16.48;8.15;;;21.80;99.90;;;;;;4189301;28;20090;-60
2021/06/25 02:01:58;;;;;;;27.35;9.68;;;21.80;99.90;;;;;;4188959;28;20029;-61
2021/06/25 02:03:59;;;;;;;19.35;8.32;;;21.80;99.90;;;;;;4189493;28;20484;-61
2021/06/25 02:06:00;;;;;;;13.38;7.80;;;21.80;99.90;;;;;;4189559;28;20041;-61
2021/06/25 02:08:01;;;;;;;13.43;8.30;;;21.80;99.90;;;;;;4189244;28;20101;-62
2021/06/25 02:10:06;;;;;;;18.77;7.55;;;21.90;99.90;;;;;;4188982;28;20048;-61
2021/06/25 02:12:07;;;;;;;19.27;6.72;;;21.90;99.90;;;;;;4190432;28;20025;-62
2021/06/25 02:14:08;;;;;;;16.73;7.40;;;21.90;99.90;;;;;;4188318;28;20082;-63
2021/06/25 02:16:10;;;;;;;17.30;6.75;;;21.90;99.90;;;;;;4189625;28;20427;-62
2021/06/25 02:18:11;;;;;;;8.32;6.32;;;21.90;99.90;;;;;;4188318;28;20107;-61
2021/06/25 02:20:13;;;;;;;14.07;6.63;;;21.90;99.90;;;;;;4189250;28;20040;-63
2021/06/25 02:22:15;;;;;;;16.42;7.22;;;21.90;99.90;;;;;;4188545;28;20040;-61
2021/06/25 02:24:16;;;;;;;18.23;6.85;;;21.90;99.90;;;;;;4188473;28;20033;-61
2021/06/25 02:26:17;;;;;;;13.15;6.82;;;21.90;99.90;;;;;;4188698;28;20448;-61
2021/06/25 02:28:19;;;;;;;14.52;6.72;;;21.90;99.90;;;;;;4191572;28;20113;-63
2021/06/25 02:30:20;;;;;;;17.88;7.55;;;21.90;99.90;;;;;;4192052;28;20049;-62
2021/06/25 02:32:21;;;;;;;17.58;6.45;;;21.80;99.90;;;;;;4191890;28;20089;-61
2021/06/25 02:34:22;;;;;;;16.67;8.13;;;21.80;99.90;;;;;;4192342;28;20032;-62
2021/06/25 02:36:24;;;;;;;17.13;7.47;;;21.70;99.90;;;;;;4191671;28;20032;-62
2021/06/25 02:38:25;;;;;;;17.13;8.10;;;21.60;99.90;;;;;;4192587;28;20036;-61
2021/06/25 02:40:26;;;;;;;16.88;8.10;;;21.50;99.90;;;;;;4191673;28;20078;-61
2021/06/25 02:42:27;;;;;;;15.90;7.97;;;21.40;99.90;;;;;;4192846;28;20048;-62
2021/06/25 02:44:28;;;;;;;20.85;8.60;;;21.40;99.90;;;;;;4191741;28;20050;-61
2021/06/25 02:46:29;;;;;;;18.13;9.10;;;21.30;99.90;;;;;;4193335;28;20150;-62
2021/06/25 02:48:31;;;;;;;20.92;9.23;;;21.20;99.90;;;;;;4190763;28;20093;-61
2021/06/25 02:50:32;;;;;;;20.05;8.50;;;21.20;99.90;;;;;;4192212;28;20032;-61
2021/06/25 02:52:34;;;;;;;16.95;10.07;;;21.10;99.90;;;;;;4190436;28;20024;-62
2021/06/25 02:54:36;;;;;;;17.60;10.27;;;21.00;99.90;;;;;;4192853;28;20450;-62
2021/06/25 02:56:37;;;;;;;18.83;10.00;;;21.00;99.90;;;;;;4191609;28;20090;-61
2021/06/25 02:58:38;;;;;;;15.55;8.95;;;21.00;99.90;;;;;;4192201;28;20472;-62
2021/06/25 03:00:39;;;;;;;19.15;10.20;;;21.10;99.90;;;;;;4190545;28;20094;-61
2021/06/25 03:02:42;;;;;;;21.67;9.80;;;21.10;99.90;;;;;;4191551;28;20040;-61
2021/06/25 03:04:43;;;;;;;16.63;8.95;;;21.10;99.90;;;;;;4191893;28;20553;-63
2021/06/25 03:06:45;;;;;;;17.00;8.63;;;21.10;99.90;;;;;;4191666;28;20518;-62
2021/06/25 03:08:46;;;;;;;11.43;8.65;;;21.20;99.90;;;;;;4192202;28;20639;-62
2021/06/25 03:10:49;;;;;;;22.90;9.63;;;21.30;99.90;;;;;;4191212;28;20029;-62
2021/06/25 03:12:50;;;;;;;17.45;9.02;;;21.40;99.90;;;;;;4192604;28;20024;-62
2021/06/25 03:14:53;;;;;;;17.77;9.35;;;21.50;99.90;;;;;;4190769;28;20044;-62
2021/06/25 03:16:55;;;;;;;18.42;9.90;;;21.60;99.90;;;;;;4192036;28;20561;-63
2021/06/25 03:18:56;;;;;;;22.85;10.23;;;21.70;99.90;;;;;;4190809;28;20040;-62
2021/06/25 03:20:57;;;;;;;15.85;9.35;;;21.80;99.90;;;;;;4191450;28;20558;-62
2021/06/25 03:22:58;;;;;;;19.85;9.52;;;21.80;99.90;;;;;;4189950;28;20048;-63
2021/06/25 03:24:59;;;;;;;21.73;12.10;;;21.90;99.90;;;;;;4192353;28;20055;-62
2021/06/25 03:27:01;;;;;;;19.85;9.25;;;22.10;99.90;;;;;;4190786;28;20029;-63
2021/06/25 03:29:02;;;;;;;22.90;9.98;;;22.20;99.90;;;;;;4191997;28;20098;-61
2021/06/25 03:31:04;;;;;;;21.85;10.32;;;22.40;99.90;;;;;;4189928;28;20036;-62
2021/06/25 03:33:05;;;;;;;20.13;10.50;;;22.50;99.90;;;;;;4196614;28;20082;-62
2021/06/25 03:35:07;;;;;;;26.35;10.50;;;22.50;99.90;;;;;;4190648;28;20029;-62
2021/06/25 03:37:09;;;;;;;21.48;10.02;;;22.50;99.90;;;;;;4186405;28;20037;-63
2021/06/25 03:39:10;;;;;;;25.73;9.90;;;22.60;99.90;;;;;;4191170;28;20021;-64
2021/06/25 03:41:11;;;;;;;25.92;9.60;;;22.70;99.90;;;;;;4190006;28;20024;-62
2021/06/25 03:43:12;;;;;;;22.98;10.25;;;22.80;99.90;;;;;;4191560;28;20149;-63
2021/06/25 03:45:14;;;;;;;27.05;10.50;;;22.90;99.90;;;;;;4190485;28;20544;-60
2021/06/25 03:47:15;;;;;;;20.35;11.95;;;23.00;99.90;;;;;;4191895;28;20434;-63
2021/06/25 03:49:17;;;;;;;24.00;9.27;;;23.10;99.90;;;;;;4190376;28;20093;-62
2021/06/25 03:51:19;;;;;;;26.05;9.63;;;23.20;99.90;;;;;;4191763;28;20049;-62
2021/06/25 03:53:20;;;;;;;26.55;10.63;;;23.30;99.90;;;;;;4190265;28;20032;-62
2021/06/25 03:55:21;;;;;;;23.80;10.43;;;23.40;99.90;;;;;;4191760;28;20044;-64
2021/06/25 03:57:22;;;;;;;22.45;9.75;;;23.60;99.90;;;;;;4190464;28;20142;-61
2021/06/25 03:59:24;;;;;;;19.25;9.48;;;23.80;99.90;;;;;;4191969;28;20040;-61
2021/06/25 04:01:25;;;;;;;16.40;9.55;;;24.20;99.90;;;;;;4189232;28;20082;-61
2021/06/25 04:03:26;;;;;;;23.98;10.52;;;24.40;99.90;;;;;;4190893;28;20037;-61
2021/06/25 04:05:27;;;;;;;30.73;11.10;;;24.60;99.90;;;;;;4190536;28;20044;-62
2021/06/25 04:07:28;;;;;;;18.48;8.65;;;24.80;99.90;;;;;;4190519;28;20082;-62
2021/06/25 04:09:31;;;;;;;23.67;10.93;;;24.80;99.90;;;;;;4190873;28;20460;-62
2021/06/25 04:11:33;;;;;;;22.83;8.88;;;24.90;99.90;;;;;;4189992;28;20377;-63
2021/06/25 04:13:35;;;;;;;26.38;10.75;;;24.90;99.90;;;;;;4190239;28;20029;-62
2021/06/25 04:15:37;;;;;;;25.95;9.70;;;25.20;99.90;;;;;;4189050;28;20099;-61
2021/06/25 04:17:38;;;;;;;26.25;9.98;;;25.50;99.90;;;;;;4191037;28;20139;-63
2021/06/25 04:19:39;;;;;;;27.10;9.68;;;25.90;99.90;;;;;;4189908;28;20451;-61
2021/06/25 04:21:40;;;;;;;23.85;9.55;;;26.40;99.90;;;;;;4190884;28;20044;-64
2021/06/25 04:23:41;;;;;;;20.27;10.30;;;27.00;99.90;;;;;;4189902;28;20411;-61
2021/06/25 04:25:43;;;;;;;15.65;8.95;;;27.30;99.90;;;;;;4190053;28;20028;-63
2021/06/25 04:27:44;;;;;;;24.08;9.25;;;27.60;99.90;;;;;;4189628;28;20077;-62
2021/06/25 04:29:46;;;;;;;25.73;9.45;;;27.50;99.90;;;;;;4190681;28;20450;-63
2021/06/25 04:31:52;;;;;;;31.92;13.65;;;27.50;99.90;;;;;;4189563;28;20102;-61
2021/06/25 04:33:53;;;;;;;38.72;11.60;;;27.50;99.90;;;;;;4191186;28;20101;-61
2021/06/25 04:35:55;;;;;;;27.42;11.30;;;27.50;99.90;;;;;;4189808;28;20033;-63
2021/06/25 04:37:56;;;;;;;25.25;11.63;;;27.70;99.90;;;;;;4189839;28;20033;-61
2021/06/25 04:39:57;;;;;;;22.50;11.27;;;28.20;99.90;;;;;;4189571;28;20049;-62
2021/06/25 04:41:59;;;;;;;20.70;11.63;;;28.50;99.90;;;;;;4189116;28;20422;-63
2021/06/25 04:44:01;;;;;;;25.30;10.52;;;28.50;99.90;;;;;;4188626;28;20044;-62
2021/06/25 04:46:02;;;;;;;26.02;11.18;;;28.40;99.90;;;;;;4188413;28;20085;-63
2021/06/25 04:48:05;;;;;;;26.80;11.00;;;28.50;99.90;;;;;;4190580;28;20086;-62
2021/06/25 04:50:07;;;;;;;24.80;10.38;;;28.30;99.90;;;;;;4188767;28;20036;-62
2021/06/25 04:52:08;;;;;;;25.02;10.05;;;28.50;99.90;;;;;;4190864;28;20443;-63
2021/06/25 04:54:09;;;;;;;26.13;10.18;;;28.40;99.90;;;;;;4188793;28;20036;-60
2021/06/25 04:56:10;;;;;;;33.17;11.85;;;28.70;99.90;;;;;;4190781;28;20028;-62
2021/06/25 04:58:14;;;;;;;22.30;10.52;;;28.90;99.90;;;;;;4189256;28;20044;-61
2021/06/25 05:00:16;;;;;;;24.73;11.20;;;29.00;99.90;;;;;;4190721;28;20021;-62
2021/06/25 05:02:17;;;;;;;24.83;10.45;;;28.90;99.90;;;;;;4188942;28;20444;-62
2021/06/25 05:04:19;;;;;;;28.17;10.95;;;29.00;99.90;;;;;;4190316;28;20055;-62
2021/06/25 05:06:20;;;;;;;26.13;10.43;;;28.90;99.90;;;;;;4190224;28;20048;-62
2021/06/25 05:08:22;;;;;;;19.17;9.73;;;28.80;99.90;;;;;;4189948;28;20097;-61
2021/06/25 05:10:23;;;;;;;19.48;9.02;;;28.60;99.90;;;;;;4189346;28;20029;-61
2021/06/25 05:12:25;;;;;;;18.15;9.02;;;28.40;99.90;;;;;;4189182;28;20040;-61
2021/06/25 05:14:26;;;;;;;18.50;9.30;;;28.20;99.90;;;;;;4189324;28;20029;-61
2021/06/25 05:16:27;;;;;;;18.08;8.77;;;28.00;99.90;;;;;;4189817;28;20082;-61
2021/06/25 05:18:29;;;;;;;25.40;9.77;;;27.80;99.90;;;;;;4189967;28;20033;-61
2021/06/25 05:20:30;;;;;;;16.70;8.80;;;27.30;99.90;;;;;;4189076;28;20472;-62
2021/06/25 05:22:31;;;;;;;20.45;8.50;;;27.00;99.90;;;;;;4189718;28;20024;-62
2021/06/25 05:24:32;;;;;;;23.88;9.63;;;26.90;99.90;;;;;;4188728;28;20526;-62
2021/06/25 05:26:34;;;;;;;17.67;8.85;;;26.70;99.90;;;;;;4190295;28;20032;-61
2021/06/25 05:28:35;;;;;;;17.48;8.68;;;26.60;99.90;;;;;;4189188;28;20090;-62
2021/06/25 05:30:37;;;;;;;19.40;9.32;;;26.50;99.90;;;;;;4189956;28;20564;-60
2021/06/25 05:32:38;;;;;;;15.85;8.23;;;26.50;99.90;;;;;;4188650;28;20086;-62
2021/06/25 05:34:39;;;;;;;18.80;9.23;;;26.60;99.90;;;;;;4190237;28;20089;-62
2021/06/25 05:36:42;;;;;;;16.77;8.95;;;26.60;99.90;;;;;;4188657;28;20126;-62
2021/06/25 05:38:43;;;;;;;18.08;9.23;;;26.60;99.90;;;;;;4189615;28;20098;-61
2021/06/25 05:40:45;;;;;;;25.05;9.57;;;26.80;99.90;;;;;;4189138;28;20028;-61
2021/06/25 05:42:46;;;;;;;19.50;9.60;;;26.60;99.90;;;;;;4189556;28;20465;-64
2021/06/25 05:44:47;;;;;;;26.00;9.70;;;27.00;99.90;;;;;;4189774;28;20036;-62
2021/06/25 05:46:48;;;;;;;22.65;9.95;;;27.00;99.90;;;;;;4189809;28;20122;-62
2021/06/25 05:48:49;;;;;;;17.70;10.10;;;27.00;99.90;;;;;;4189954;28;20443;-62
2021/06/25 05:50:51;;;;;;;14.52;8.80;;;27.10;99.90;;;;;;4188447;28;20105;-63
2021/06/25 05:52:52;;;;;;;25.63;11.05;;;27.10;99.90;;;;;;4188120;28;20153;-61
2021/06/25 05:54:53;;;;;;;20.77;9.70;;;27.30;99.90;;;;;;4187301;28;20130;-62
2021/06/25 05:56:54;;;;;;;18.67;9.18;;;27.20;99.90;;;;;;4190185;28;20090;-62
2021/06/25 05:58:55;;;;;;;19.55;9.68;;;27.40;99.90;;;;;;4188811;28;20194;-62
2021/06/25 06:00:56;;;;;;;19.05;9.50;;;27.40;99.90;;;;;;4190010;28;20074;-63
2021/06/25 06:02:58;;;;;;;18.13;9.25;;;27.20;99.90;;;;;;4190913;28;20049;-62
2021/06/25 06:04:59;;;;;;;19.35;10.55;;;27.30;99.90;;;;;;4193356;28;20101;-62
2021/06/25 06:07:01;;;;;;;17.52;8.80;;;27.60;99.90;;;;;;4191442;28;20071;-61
2021/06/25 06:09:03;;;;;;;23.73;9.32;;;28.20;99.90;;;;;;4192642;28;20418;-61
2021/06/25 06:11:05;;;;;;;17.35;9.07;;;28.00;99.90;;;;;;4191777;28;20016;-62
2021/06/25 06:13:06;;;;;;;23.30;8.73;;;28.00;99.90;;;;;;4192672;28;20070;-61
2021/06/25 06:15:08;;;;;;;21.40;8.70;;;28.10;99.90;;;;;;4192001;28;20430;-61
2021/06/25 06:17:09;;;;;;;17.67;8.38;;;28.40;99.90;;;;;;4192259;28;20025;-62
2021/06/25 06:19:10;;;;;;;19.15;8.68;;;29.10;99.90;;;;;;4192579;28;20016;-62
2021/06/25 06:21:13;;;;;;;19.45;8.63;;;29.90;99.90;;;;;;4191593;28;20438;-62
2021/06/25 06:32:46;;;;;;;27.40;10.60;;;29.60;99.90;;;;;;4191407;28;20086;-61
2021/06/25 06:34:48;;;;;;;26.90;10.75;;;29.10;99.90;;;;;;4192529;28;20028;-62
2021/06/25 06:36:49;;;;;;;28.02;10.90;;;28.90;99.90;;;;;;4191668;28;20098;-61
2021/06/25 06:38:52;;;;;;;24.27;12.30;;;29.00;99.90;;;;;;4192041;28;20029;-61
2021/06/25 06:40:53;;;;;;;25.15;10.05;;;28.90;99.90;;;;;;4190665;28;20032;-61
2021/06/25 06:42:54;;;;;;;20.63;10.40;;;29.10;99.90;;;;;;4191109;28;20025;-61
2021/06/25 06:44:55;;;;;;;16.73;10.57;;;29.00;99.90;;;;;;4191554;28;20048;-61
2021/06/25 06:46:58;;;;;;;23.25;10.13;;;28.90;99.90;;;;;;4191293;28;20032;-62
2021/06/25 06:49:00;;;;;;;25.23;10.23;;;29.20;99.90;;;;;;4192495;28;20045;-61
2021/06/25 06:51:02;;;;;;;18.13;9.57;;;29.30;99.90;;;;;;4190839;28;20041;-62
2021/06/25 06:53:03;;;;;;;19.38;9.85;;;29.50;99.90;;;;;;4192133;28;20037;-61
2021/06/25 06:55:04;;;;;;;18.40;9.25;;;29.60;99.90;;;;;;4190803;28;20032;-61
2021/06/25 06:57:05;;;;;;;17.40;8.70;;;29.50;99.90;;;;;;4192368;28;20024;-61
2021/06/25 06:59:07;;;;;;;19.40;8.85;;;29.30;99.90;;;;;;4190601;28;20192;-62
2021/06/25 07:01:09;;;;;;;17.08;8.20;;;29.40;99.90;;;;;;4192077;28;20044;-63
2021/06/25 07:03:12;;;;;;;23.98;9.35;;;29.70;99.90;;;;;;4191528;28;20086;-62
2021/06/25 07:05:15;;;;;;;20.70;9.25;;;29.90;99.90;;;;;;4192179;28;20132;-62
2021/06/25 07:07:16;;;;;;;22.98;10.45;;;30.00;99.90;;;;;;4190879;28;20036;-61
2021/06/25 07:09:17;;;;;;;15.82;8.50;;;29.90;99.90;;;;;;4191283;28;20032;-62
2021/06/25 07:11:18;;;;;;;29.92;9.02;;;29.90;99.90;;;;;;4191429;28;20094;-61
2021/06/25 07:13:19;;;;;;;17.90;9.30;;;30.00;99.90;;;;;;4190988;28;20044;-61
2021/06/25 07:15:21;;;;;;;21.92;8.88;;;30.00;99.90;;;;;;4191226;28;20546;-61
2021/06/25 07:17:22;;;;;;;14.32;7.90;;;30.00;99.90;;;;;;4190701;28;20090;-62
2021/06/25 07:19:23;;;;;;;20.75;8.45;;;30.30;99.90;;;;;;4192134;28;20649;-61
2021/06/25 07:21:24;;;;;;;29.15;9.50;;;30.80;99.90;;;;;;4190389;28;20032;-62
2021/06/25 07:23:25;;;;;;;17.50;8.23;;;31.20;99.90;;;;;;4191976;28;20088;-61
2021/06/25 07:25:28;;;;;;;25.65;7.75;;;31.40;99.90;;;;;;4190650;28;20090;-62
2021/06/25 07:27:29;;;;;;;18.92;8.85;;;31.50;99.90;;;;;;4191719;28;20033;-61
2021/06/25 07:29:31;;;;;;;27.92;8.00;;;31.60;99.90;;;;;;4190471;28;20024;-62
2021/06/25 07:31:32;;;;;;;17.85;7.32;;;31.50;99.90;;;;;;4191673;28;20021;-62
2021/06/25 07:33:33;;;;;;;12.93;7.72;;;31.40;99.90;;;;;;4190673;28;20100;-61
2021/06/25 07:35:34;;;;;;;18.77;6.82;;;31.30;99.90;;;;;;4192274;28;20506;-61
2021/06/25 07:37:36;;;;;;;21.83;7.40;;;31.30;99.90;;;;;;4189761;28;20082;-61
2021/06/25 07:39:37;;;;;;;19.55;7.10;;;31.30;99.90;;;;;;4191570;28;20094;-61
2021/06/25 07:41:38;;;;;;;19.67;7.10;;;31.30;99.90;;;;;;4190640;28;20020;-62
2021/06/25 07:43:39;;;;;;;19.63;6.82;;;31.50;99.90;;;;;;4190569;28;20028;-62
2021/06/25 07:45:41;;;;;;;18.75;6.90;;;31.40;99.90;;;;;;4191363;28;20041;-62
2021/06/25 07:47:43;;;;;;;20.63;7.68;;;31.10;99.90;;;;;;4190685;28;20036;-61
2021/06/25 07:49:44;;;;;;;16.25;7.32;;;31.10;99.90;;;;;;4191171;28;20086;-61
2021/06/25 07:51:46;;;;;;;15.30;5.95;;;31.20;99.90;;;;;;4189904;28;20748;-63
2021/06/25 07:53:47;;;;;;;21.80;6.22;;;31.20;99.90;;;;;;4191412;28;20086;-62
2021/06/25 07:55:48;;;;;;;16.75;6.18;;;31.30;99.90;;;;;;4189585;28;20551;-62
2021/06/25 07:57:49;;;;;;;18.88;6.45;;;31.40;99.90;;;;;;4191234;28;20090;-62
2021/06/25 07:59:50;;;;;;;14.15;6.45;;;31.30;99.90;;;;;;4190025;28;20450;-62
2021/06/25 08:01:51;;;;;;;13.48;6.35;;;31.30;99.90;;;;;;4189867;28;20079;-63
2021/06/25 08:03:53;;;;;;;17.58;6.55;;;31.20;99.90;;;;;;4189865;28;20109;-61
2021/06/25 08:05:54;;;;;;;14.77;6.07;;;31.30;99.90;;;;;;4191450;28;20406;-62
2021/06/25 08:07:58;;;;;;;15.32;5.43;;;31.40;99.90;;;;;;4189635;28;20087;-61
2021/06/25 08:09:59;;;;;;;18.00;6.28;;;31.40;99.90;;;;;;4190944;28;20044;-61
2021/06/25 08:12:01;;;;;;;17.17;6.15;;;31.40;99.90;;;;;;4189699;28;20180;-62
2021/06/25 08:14:02;;;;;;;17.90;6.22;;;31.30;99.90;;;;;;4189604;28;20059;-61
2021/06/25 08:16:04;;;;;;;14.75;5.47;;;31.20;99.90;;;;;;4190358;28;20102;-62
2021/06/25 08:18:05;;;;;;;14.90;5.35;;;31.20;99.90;;;;;;4190008;28;20036;-62
2021/06/25 08:20:07;;;;;;;15.40;5.28;;;31.20;99.90;;;;;;4190989;28;20024;-61
2021/06/25 08:22:08;;;;;;;17.23;5.88;;;31.20;99.90;;;;;;4189243;28;20493;-62
2021/06/25 08:24:10;;;;;;;19.85;6.05;;;31.30;99.90;;;;;;4191415;28;20044;-61
2021/06/25 08:26:11;;;;;;;16.45;6.20;;;31.40;99.90;;;;;;4189062;28;20036;-61
2021/06/25 08:28:12;;;;;;;21.10;6.63;;;31.40;99.90;;;;;;4190968;28;20085;-61
2021/06/25 08:30:14;;;;;;;16.27;5.80;;;31.40;99.90;;;;;;4189350;28;20056;-61
2021/06/25 08:32:15;;;;;;;14.50;6.05;;;31.40;99.90;;;;;;4190984;28;20102;-62
2021/06/25 08:34:16;;;;;;;16.88;6.25;;;31.30;99.90;;;;;;4189874;28;20097;-61
2021/06/25 08:36:17;;;;;;;13.40;5.63;;;31.40;99.90;;;;;;4190501;28;20032;-63
2021/06/25 08:38:19;;;;;;;13.55;5.53;;;31.50;99.70;;;;;;4189677;28;20414;-61
2021/06/25 08:40:21;;;;;;;12.52;5.50;;;31.40;99.30;;;;;;4190606;28;20079;-62
2021/06/25 08:42:23;;;;;;;15.32;5.95;;;31.40;99.40;;;;;;4189627;28;20090;-62
2021/06/25 08:44:24;;;;;;;19.08;6.05;;;31.40;99.10;;;;;;4190361;28;20048;-63
2021/06/25 08:46:30;;;;;;;16.73;5.43;;;31.20;99.30;;;;;;4189345;28;20028;-61
2021/06/25 08:48:33;;;;;;;18.50;4.85;;;31.30;99.30;;;;;;4189435;28;20403;-62
2021/06/25 08:50:39;;;;;;;17.90;4.78;;;31.20;99.20;;;;;;4189606;28;20057;-61
2021/06/25 08:52:46;;;;;;;18.08;6.53;;;31.20;99.10;;;;;;4189784;28;20059;-62
2021/06/25 08:54:47;;;;;;;13.77;6.05;;;31.10;98.90;;;;;;4190204;28;20105;-62
2021/06/25 08:56:49;;;;;;;15.00;5.80;;;31.20;99.00;;;;;;4188692;28;20025;-61
2021/06/25 08:58:50;;;;;;;17.25;4.78;;;31.30;98.70;;;;;;4190317;28;20074;-61
2021/06/25 09:00:52;;;;;;;11.20;5.20;;;31.30;98.50;;;;;;4188971;28;20028;-62
2021/06/25 09:02:53;;;;;;;24.63;6.05;;;31.40;98.40;;;;;;4190303;28;20103;-61
2021/06/25 09:04:54;;;;;;;16.10;5.07;;;31.30;98.40;;;;;;4189527;28;20117;-62
2021/06/25 09:06:56;;;;;;;21.77;5.32;;;31.20;98.50;;;;;;4190216;28;20033;-63
2021/06/25 09:09:15;;;;;;;21.27;5.75;;;31.30;98.50;;;;;;4189390;28;20098;-61
2021/06/25 09:11:30;;;;;;;14.18;5.28;;;31.30;98.40;;;;;;4190508;28;20458;-61
2021/06/25 09:13:36;;;;;;;18.33;5.35;;;31.40;98.30;;;;;;4189096;28;20887;-61
2021/06/25 09:15:40;;;;;;;19.48;5.65;;;31.50;98.10;;;;;;4189613;28;20691;-61
2021/06/25 09:17:55;;;;;;;27.42;6.03;;;31.40;98.00;;;;;;4188708;28;20028;-62
2021/06/25 09:19:57;;;;;;;15.07;5.70;;;31.50;97.80;;;;;;4189822;28;20032;-62
2021/06/25 09:22:01;;;;;;;17.88;5.03;;;31.50;97.90;;;;;;4188662;28;20094;-61
2021/06/25 09:24:25;;;;;;;17.25;5.55;;;31.30;98.10;;;;;;4190267;28;20033;-61
2021/06/25 09:26:31;;;;;;;20.95;6.07;;;31.20;98.60;;;;;;4187546;28;20074;-62
2021/06/25 09:28:46;;;;;;;18.05;5.55;;;31.10;98.80;;;;;;4189799;28;20033;-62
2021/06/25 09:30:47;;;;;;;17.58;5.35;;;31.10;99.00;;;;;;4188617;28;20068;-61
2021/06/25 09:32:49;;;;;;;24.85;6.07;;;31.10;99.00;;;;;;4190003;28;20419;-60
2021/06/25 09:34:53;;;;;;;22.95;7.22;;;31.00;99.00;;;;;;4189427;28;20070;-62
2021/06/25 09:37:01;;;;;;;14.45;5.93;;;30.90;99.20;;;;;;4191965;28;20499;-61
2021/06/25 09:39:12;;;;;;;20.80;6.57;;;30.80;99.40;;;;;;4190914;28;20042;-61
2021/06/25 09:41:20;;;;;;;16.67;5.78;;;30.70;99.60;;;;;;4193118;28;20037;-61
2021/06/25 09:43:21;;;;;;;22.05;7.53;;;30.60;99.80;;;;;;4193018;28;20049;-62
2021/06/25 09:45:25;;;;;;;25.15;7.57;;;30.70;99.90;;;;;;4193324;28;20058;-62
2021/06/25 09:47:40;;;;;;;25.80;7.18;;;30.60;99.90;;;;;;4190944;28;20082;-61
2021/06/25 09:49:42;;;;;;;22.02;6.95;;;30.50;99.90;;;;;;4193696;28;20095;-61
2021/06/25 09:52:01;;;;;;;20.88;6.80;;;30.30;99.90;;;;;;4191467;28;20051;-61
2021/06/25 09:54:04;;;;;;;;;;;30.10;99.90;;;;;;4193684;28;20086;-60
2021/06/25 09:56:07;;;;;;;25.02;7.07;;;30.00;99.90;;;;;;4191274;28;19985;-60
2021/06/25 10:01:21;;;;;;;16.85;8.30;;;30.00;99.90;;;;;;4191979;28;20105;-61
2021/06/25 10:02:42;;;;;;;34.78;8.45;;;29.90;99.90;;;;;;4192921;28;20514;-61
2021/06/25 10:04:48;;;;;;;23.75;7.88;;;29.80;99.90;;;;;;4192385;28;20048;-62
2021/06/25 10:06:49;;;;;;;16.67;6.55;;;29.90;99.90;;;;;;4193137;28;20024;-61
2021/06/25 10:08:52;;;;;;;21.55;7.10;;;29.80;99.90;;;;;;4192193;28;20036;-62
2021/06/25 10:10:53;;;;;;;22.08;6.88;;;29.70;99.90;;;;;;4192478;28;20033;-61
2021/06/25 10:12:54;;;;;;;25.00;7.10;;;29.60;99.90;;;;;;4192048;28;20093;-62
2021/06/25 10:14:55;;;;;;;21.10;7.05;;;29.60;99.90;;;;;;4191931;28;20024;-62
2021/06/25 10:16:57;;;;;;;25.17;7.30;;;29.50;99.90;;;;;;4191980;28;20025;-62
2021/06/25 10:18:59;;;;;;;23.83;7.10;;;29.50;99.90;;;;;;4191783;28;20146;-63
2021/06/25 10:21:02;;;;;;;25.48;8.18;;;29.60;99.90;;;;;;4190837;28;20058;-61
2021/06/25 10:23:07;;;;;;;26.45;8.07;;;29.60;99.90;;;;;;4191112;28;20040;-61
2021/06/25 10:25:09;;;;;;;22.83;7.05;;;29.60;99.90;;;;;;4192502;28;20094;-63
2021/06/25 10:27:11;;;;;;;26.17;8.10;;;29.60;99.90;;;;;;4191386;28;20036;-60
2021/06/25 10:29:13;;;;;;;15.05;6.30;;;29.40;99.90;;;;;;4192688;28;20046;-60
2021/06/25 10:31:17;;;;;;;20.42;7.95;;;29.30;99.90;;;;;;4191496;28;20056;-60
2021/06/25 10:33:18;;;;;;;29.10;8.10;;;29.00;99.90;;;;;;4192620;28;20062;-62
2021/06/25 10:35:20;;;;;;;35.63;6.30;;;28.90;99.90;;;;;;4191638;28;20161;-63
2021/06/25 10:37:24;;;;;;;27.08;6.35;;;28.70;99.90;;;;;;4193170;28;20086;-61